sensor_id;sensor_type;location;lat;lon;timestamp;P1;durP1;ratioP1;P2;durP2;ratioP2
6177;SDS011;3122;48.208;11.174;2024-02-21T00:04:01;5.83;;;2.77;;
6177;SDS011;3122;48.208;11.174;2024-02-21T00:09:02;6.33;;;3.40;;
6177;SDS011;3122;48.208;11.174;2024-02-21T00:14:02;6.43;;;3.43;;
6177;SDS011;3122;48.208;11.174;2024-02-21T00:19:03;7.87;;;3.30;;
6177;SDS011;3122;48.208;11.174;2024-02-21T00:24:03;5.37;;;2.93;;
6177;SDS011;3122;48.208;11.174;2024-02-21T00:29:04;4.43;;;3.10;;
6177;SDS011;3122;48.208;11.174;2024-02-21T00:34:05;5.70;;;2.80;;
6177;SDS011;3122;48.208;11.174;2024-02-21T00:39:06;4.17;;;2.40;;
6177;SDS011;3122;48.208;11.174;2024-02-21T00:44:06;6.60;;;2.80;;
6177;SDS011;3122;48.208;11.174;2024-02-21T00:49:07;4.00;;;2.63;;
6177;SDS011;3122;48.208;11.174;2024-02-21T00:54:07;3.73;;;2.67;;
6177;SDS011;3122;48.208;11.174;2024-02-21T00:59:08;6.50;;;2.93;;
6177;SDS011;3122;48.208;11.174;2024-02-21T01:04:09;5.70;;;3.20;;
6177;SDS011;3122;48.208;11.174;2024-02-21T01:09:10;7.30;;;2.83;;
6177;SDS011;3122;48.208;11.174;2024-02-21T01:14:11;4.17;;;2.90;;
6177;SDS011;3122;48.208;11.174;2024-02-21T01:19:11;7.00;;;2.67;;
6177;SDS011;3122;48.208;11.174;2024-02-21T01:24:12;3.90;;;3.23;;
6177;SDS011;3122;48.208;11.174;2024-02-21T01:29:14;6.87;;;3.30;;
6177;SDS011;3122;48.208;11.174;2024-02-21T01:34:14;6.30;;;3.13;;
6177;SDS011;3122;48.208;11.174;2024-02-21T01:39:15;7.77;;;3.07;;
6177;SDS011;3122;48.208;11.174;2024-02-21T01:44:15;4.57;;;3.33;;
6177;SDS011;3122;48.208;11.174;2024-02-21T01:49:16;7.00;;;3.13;;
6177;SDS011;3122;48.208;11.174;2024-02-21T01:54:17;4.77;;;3.40;;
6177;SDS011;3122;48.208;11.174;2024-02-21T01:59:19;8.27;;;3.80;;
6177;SDS011;3122;48.208;11.174;2024-02-21T02:04:21;3.60;;;2.80;;
6177;SDS011;3122;48.208;11.174;2024-02-21T02:09:23;4.37;;;3.00;;
6177;SDS011;3122;48.208;11.174;2024-02-21T02:14:23;4.57;;;2.70;;
6177;SDS011;3122;48.208;11.174;2024-02-21T02:19:24;3.43;;;2.83;;
6177;SDS011;3122;48.208;11.174;2024-02-21T02:24:24;8.10;;;3.37;;
6177;SDS011;3122;48.208;11.174;2024-02-21T02:29:28;7.17;;;3.13;;
6177;SDS011;3122;48.208;11.174;2024-02-21T02:34:28;3.23;;;2.63;;
6177;SDS011;3122;48.208;11.174;2024-02-21T02:39:30;4.90;;;3.00;;
6177;SDS011;3122;48.208;11.174;2024-02-21T02:44:31;5.93;;;3.27;;
6177;SDS011;3122;48.208;11.174;2024-02-21T02:49:32;3.83;;;3.03;;
6177;SDS011;3122;48.208;11.174;2024-02-21T02:54:32;3.63;;;2.80;;
6177;SDS011;3122;48.208;11.174;2024-02-21T02:59:33;7.30;;;2.90;;
6177;SDS011;3122;48.208;11.174;2024-02-21T03:04:33;4.20;;;2.83;;
6177;SDS011;3122;48.208;11.174;2024-02-21T03:09:34;3.60;;;2.90;;
6177;SDS011;3122;48.208;11.174;2024-02-21T03:14:35;3.00;;;2.40;;
6177;SDS011;3122;48.208;11.174;2024-02-21T03:19:35;2.80;;;2.60;;
6177;SDS011;3122;48.208;11.174;2024-02-21T03:24:36;4.90;;;2.60;;
6177;SDS011;3122;48.208;11.174;2024-02-21T03:29:36;5.40;;;2.53;;
6177;SDS011;3122;48.208;11.174;2024-02-21T03:34:37;4.27;;;2.40;;
6177;SDS011;3122;48.208;11.174;2024-02-21T03:39:37;4.90;;;2.50;;
6177;SDS011;3122;48.208;11.174;2024-02-21T03:44:38;3.73;;;2.57;;
6177;SDS011;3122;48.208;11.174;2024-02-21T03:49:38;6.50;;;2.63;;
6177;SDS011;3122;48.208;11.174;2024-02-21T03:54:39;4.77;;;2.43;;
6177;SDS011;3122;48.208;11.174;2024-02-21T03:59:39;3.70;;;2.47;;
6177;SDS011;3122;48.208;11.174;2024-02-21T04:04:42;3.37;;;2.33;;
6177;SDS011;3122;48.208;11.174;2024-02-21T04:09:46;3.03;;;2.27;;
6177;SDS011;3122;48.208;11.174;2024-02-21T04:14:46;3.10;;;2.20;;
6177;SDS011;3122;48.208;11.174;2024-02-21T04:19:47;11.17;;;2.10;;
6177;SDS011;3122;48.208;11.174;2024-02-21T04:24:47;2.40;;;2.20;;
6177;SDS011;3122;48.208;11.174;2024-02-21T04:29:48;4.10;;;2.20;;
6177;SDS011;3122;48.208;11.174;2024-02-21T04:34:48;5.70;;;2.40;;
6177;SDS011;3122;48.208;11.174;2024-02-21T04:39:49;2.57;;;2.23;;
6177;SDS011;3122;48.208;11.174;2024-02-21T04:44:50;3.90;;;2.23;;
6177;SDS011;3122;48.208;11.174;2024-02-21T04:49:51;2.43;;;2.17;;
6177;SDS011;3122;48.208;11.174;2024-02-21T04:54:51;3.30;;;2.00;;
6177;SDS011;3122;48.208;11.174;2024-02-21T04:59:52;6.23;;;2.10;;
6177;SDS011;3122;48.208;11.174;2024-02-21T05:04:52;2.70;;;2.10;;
6177;SDS011;3122;48.208;11.174;2024-02-21T05:09:53;4.60;;;1.90;;
6177;SDS011;3122;48.208;11.174;2024-02-21T05:14:54;4.90;;;2.10;;
6177;SDS011;3122;48.208;11.174;2024-02-21T05:19:55;10.10;;;2.40;;
6177;SDS011;3122;48.208;11.174;2024-02-21T05:24:55;1.90;;;1.80;;
6177;SDS011;3122;48.208;11.174;2024-02-21T05:29:56;2.17;;;1.97;;
6177;SDS011;3122;48.208;11.174;2024-02-21T05:34:56;2.93;;;2.00;;
6177;SDS011;3122;48.208;11.174;2024-02-21T05:39:58;4.97;;;1.87;;
6177;SDS011;3122;48.208;11.174;2024-02-21T05:44:58;3.40;;;1.87;;
6177;SDS011;3122;48.208;11.174;2024-02-21T05:49:59;3.90;;;1.90;;
6177;SDS011;3122;48.208;11.174;2024-02-21T05:55:00;1.83;;;1.63;;
6177;SDS011;3122;48.208;11.174;2024-02-21T06:00:02;2.17;;;1.77;;
6177;SDS011;3122;48.208;11.174;2024-02-21T06:05:05;2.40;;;2.10;;
6177;SDS011;3122;48.208;11.174;2024-02-21T06:10:09;1.63;;;1.53;;
6177;SDS011;3122;48.208;11.174;2024-02-21T06:15:10;1.80;;;1.70;;
6177;SDS011;3122;48.208;11.174;2024-02-21T06:20:11;4.33;;;1.90;;
6177;SDS011;3122;48.208;11.174;2024-02-21T06:25:11;1.67;;;1.50;;
6177;SDS011;3122;48.208;11.174;2024-02-21T06:30:12;2.77;;;1.60;;
6177;SDS011;3122;48.208;11.174;2024-02-21T06:35:13;1.73;;;1.63;;
6177;SDS011;3122;48.208;11.174;2024-02-21T06:40:13;1.50;;;1.40;;
6177;SDS011;3122;48.208;11.174;2024-02-21T06:45:14;2.70;;;1.87;;
6177;SDS011;3122;48.208;11.174;2024-02-21T06:50:15;2.30;;;2.10;;
6177;SDS011;3122;48.208;11.174;2024-02-21T06:55:16;2.30;;;1.70;;
6177;SDS011;3122;48.208;11.174;2024-02-21T07:00:18;2.10;;;1.73;;
6177;SDS011;3122;48.208;11.174;2024-02-21T07:05:25;2.00;;;1.40;;
6177;SDS011;3122;48.208;11.174;2024-02-21T07:10:27;1.50;;;1.40;;
6177;SDS011;3122;48.208;11.174;2024-02-21T07:15:29;1.50;;;1.40;;
6177;SDS011;3122;48.208;11.174;2024-02-21T07:20:30;1.57;;;1.47;;
6177;SDS011;3122;48.208;11.174;2024-02-21T07:25:33;3.20;;;2.80;;
6177;SDS011;3122;48.208;11.174;2024-02-21T07:30:34;4.03;;;2.77;;
6177;SDS011;3122;48.208;11.174;2024-02-21T07:35:35;1.60;;;1.50;;
6177;SDS011;3122;48.208;11.174;2024-02-21T07:40:40;2.67;;;1.40;;
6177;SDS011;3122;48.208;11.174;2024-02-21T07:45:41;3.20;;;1.47;;
6177;SDS011;3122;48.208;11.174;2024-02-21T07:50:41;3.27;;;1.20;;
6177;SDS011;3122;48.208;11.174;2024-02-21T07:55:42;2.73;;;1.17;;
6177;SDS011;3122;48.208;11.174;2024-02-21T08:00:43;1.43;;;1.33;;
6177;SDS011;3122;48.208;11.174;2024-02-21T08:05:43;1.37;;;1.27;;
6177;SDS011;3122;48.208;11.174;2024-02-21T08:10:44;1.30;;;1.20;;
6177;SDS011;3122;48.208;11.174;2024-02-21T08:15:44;1.40;;;1.30;;
6177;SDS011;3122;48.208;11.174;2024-02-21T08:20:53;1.60;;;1.50;;
6177;SDS011;3122;48.208;11.174;2024-02-21T08:25:57;1.70;;;1.37;;
6177;SDS011;3122;48.208;11.174;2024-02-21T08:30:57;1.30;;;1.20;;
6177;SDS011;3122;48.208;11.174;2024-02-21T08:35:58;1.40;;;1.17;;
6177;SDS011;3122;48.208;11.174;2024-02-21T08:40:58;2.67;;;1.10;;
6177;SDS011;3122;48.208;11.174;2024-02-21T08:45:59;1.10;;;1.10;;
6177;SDS011;3122;48.208;11.174;2024-02-21T08:51:00;1.40;;;1.30;;
6177;SDS011;3122;48.208;11.174;2024-02-21T08:56:00;1.20;;;1.10;;
6177;SDS011;3122;48.208;11.174;2024-02-21T09:01:01;2.63;;;1.10;;
6177;SDS011;3122;48.208;11.174;2024-02-21T09:06:04;1.80;;;1.10;;
6177;SDS011;3122;48.208;11.174;2024-02-21T09:11:06;1.10;;;1.10;;
6177;SDS011;3122;48.208;11.174;2024-02-21T09:16:06;1.13;;;1.10;;
6177;SDS011;3122;48.208;11.174;2024-02-21T09:21:09;1.40;;;1.30;;
6177;SDS011;3122;48.208;11.174;2024-02-21T09:26:09;1.07;;;1.07;;
6177;SDS011;3122;48.208;11.174;2024-02-21T09:31:13;3.17;;;1.17;;
6177;SDS011;3122;48.208;11.174;2024-02-21T09:36:14;1.20;;;1.20;;
6177;SDS011;3122;48.208;11.174;2024-02-21T09:46:17;1.30;;;1.20;;
6177;SDS011;3122;48.208;11.174;2024-02-21T09:51:19;1.53;;;1.20;;
6177;SDS011;3122;48.208;11.174;2024-02-21T09:56:21;1.43;;;1.33;;
6177;SDS011;3122;48.208;11.174;2024-02-21T10:01:22;2.27;;;1.27;;
6177;SDS011;3122;48.208;11.174;2024-02-21T10:06:22;1.10;;;1.00;;
6177;SDS011;3122;48.208;11.174;2024-02-21T10:11:24;1.73;;;1.00;;
6177;SDS011;3122;48.208;11.174;2024-02-21T10:16:25;1.40;;;1.30;;
6177;SDS011;3122;48.208;11.174;2024-02-21T10:21:25;0.90;;;0.90;;
6177;SDS011;3122;48.208;11.174;2024-02-21T10:26:26;1.30;;;1.20;;
6177;SDS011;3122;48.208;11.174;2024-02-21T10:31:27;1.77;;;1.23;;
6177;SDS011;3122;48.208;11.174;2024-02-21T10:36:28;1.37;;;1.27;;
6177;SDS011;3122;48.208;11.174;2024-02-21T10:41:29;1.60;;;1.30;;
6177;SDS011;3122;48.208;11.174;2024-02-21T10:46:31;1.40;;;1.30;;
6177;SDS011;3122;48.208;11.174;2024-02-21T10:51:34;1.00;;;1.00;;
6177;SDS011;3122;48.208;11.174;2024-02-21T10:56:40;1.00;;;1.00;;
6177;SDS011;3122;48.208;11.174;2024-02-21T11:01:41;1.20;;;1.10;;
6177;SDS011;3122;48.208;11.174;2024-02-21T11:06:42;0.90;;;0.90;;
6177;SDS011;3122;48.208;11.174;2024-02-21T11:11:43;0.90;;;0.90;;
6177;SDS011;3122;48.208;11.174;2024-02-21T11:16:44;1.27;;;1.20;;
6177;SDS011;3122;48.208;11.174;2024-02-21T11:21:47;1.87;;;1.10;;
6177;SDS011;3122;48.208;11.174;2024-02-21T11:26:48;0.90;;;0.90;;
6177;SDS011;3122;48.208;11.174;2024-02-21T11:31:49;1.13;;;1.10;;
6177;SDS011;3122;48.208;11.174;2024-02-21T11:36:51;1.17;;;1.03;;
6177;SDS011;3122;48.208;11.174;2024-02-21T11:42:05;1.60;;;1.13;;
6177;SDS011;3122;48.208;11.174;2024-02-21T11:47:09;1.10;;;1.00;;
6177;SDS011;3122;48.208;11.174;2024-02-21T11:52:10;1.20;;;0.90;;
6177;SDS011;3122;48.208;11.174;2024-02-21T11:57:10;0.90;;;0.90;;
6177;SDS011;3122;48.208;11.174;2024-02-21T12:02:11;1.00;;;1.00;;
6177;SDS011;3122;48.208;11.174;2024-02-21T12:07:12;0.80;;;0.80;;
6177;SDS011;3122;48.208;11.174;2024-02-21T12:12:14;1.20;;;0.97;;
6177;SDS011;3122;48.208;11.174;2024-02-21T12:17:20;1.13;;;1.03;;
6177;SDS011;3122;48.208;11.174;2024-02-21T12:22:20;0.90;;;0.90;;
6177;SDS011;3122;48.208;11.174;2024-02-21T12:27:21;2.70;;;1.00;;
6177;SDS011;3122;48.208;11.174;2024-02-21T12:32:23;1.60;;;1.20;;
6177;SDS011;3122;48.208;11.174;2024-02-21T12:37:24;1.03;;;0.93;;
6177;SDS011;3122;48.208;11.174;2024-02-21T12:42:25;0.93;;;0.90;;
6177;SDS011;3122;48.208;11.174;2024-02-21T12:47:26;1.60;;;0.83;;
6177;SDS011;3122;48.208;11.174;2024-02-21T12:52:27;1.13;;;0.90;;
6177;SDS011;3122;48.208;11.174;2024-02-21T12:57:28;1.23;;;0.90;;
6177;SDS011;3122;48.208;11.174;2024-02-21T13:02:28;1.27;;;0.93;;
6177;SDS011;3122;48.208;11.174;2024-02-21T13:07:29;1.17;;;1.00;;
6177;SDS011;3122;48.208;11.174;2024-02-21T13:12:32;1.40;;;1.30;;
6177;SDS011;3122;48.208;11.174;2024-02-21T13:17:32;1.63;;;0.80;;
6177;SDS011;3122;48.208;11.174;2024-02-21T13:22:33;0.87;;;0.87;;
6177;SDS011;3122;48.208;11.174;2024-02-21T13:27:34;2.83;;;0.87;;
6177;SDS011;3122;48.208;11.174;2024-02-21T13:32:34;1.00;;;1.00;;
6177;SDS011;3122;48.208;11.174;2024-02-21T13:37:35;0.90;;;0.90;;
6177;SDS011;3122;48.208;11.174;2024-02-21T13:42:37;1.00;;;1.00;;
6177;SDS011;3122;48.208;11.174;2024-02-21T13:47:37;3.07;;;0.87;;
6177;SDS011;3122;48.208;11.174;2024-02-21T13:52:41;0.80;;;0.80;;
6177;SDS011;3122;48.208;11.174;2024-02-21T13:57:42;1.40;;;1.20;;
6177;SDS011;3122;48.208;11.174;2024-02-21T14:02:42;0.90;;;0.90;;
6177;SDS011;3122;48.208;11.174;2024-02-21T14:07:43;1.50;;;1.40;;
6177;SDS011;3122;48.208;11.174;2024-02-21T14:12:43;0.87;;;0.87;;
6177;SDS011;3122;48.208;11.174;2024-02-21T14:17:44;1.43;;;0.93;;
6177;SDS011;3122;48.208;11.174;2024-02-21T14:22:44;1.00;;;1.00;;
6177;SDS011;3122;48.208;11.174;2024-02-21T14:27:45;1.40;;;1.30;;
6177;SDS011;3122;48.208;11.174;2024-02-21T14:32:45;2.50;;;1.53;;
6177;SDS011;3122;48.208;11.174;2024-02-21T16:33:04;1.70;;;1.60;;
6177;SDS011;3122;48.208;11.174;2024-02-21T16:38:04;1.60;;;1.50;;
6177;SDS011;3122;48.208;11.174;2024-02-21T16:43:05;3.43;;;2.10;;
6177;SDS011;3122;48.208;11.174;2024-02-21T16:48:06;2.60;;;2.37;;
6177;SDS011;3122;48.208;11.174;2024-02-21T16:53:06;2.50;;;2.20;;
6177;SDS011;3122;48.208;11.174;2024-02-21T16:58:07;2.00;;;1.90;;
6177;SDS011;3122;48.208;11.174;2024-02-21T17:03:08;1.50;;;1.40;;
6177;SDS011;3122;48.208;11.174;2024-02-21T17:08:08;2.20;;;1.50;;
6177;SDS011;3122;48.208;11.174;2024-02-21T17:13:09;1.37;;;1.27;;
6177;SDS011;3122;48.208;11.174;2024-02-21T17:18:10;1.80;;;1.50;;
6177;SDS011;3122;48.208;11.174;2024-02-21T17:23:10;2.47;;;1.87;;
6177;SDS011;3122;48.208;11.174;2024-02-21T17:28:15;4.00;;;1.50;;
6177;SDS011;3122;48.208;11.174;2024-02-21T17:33:16;3.93;;;2.93;;
6177;SDS011;3122;48.208;11.174;2024-02-21T18:13:29;5.67;;;4.47;;
6177;SDS011;3122;48.208;11.174;2024-02-21T18:18:30;5.33;;;3.90;;
6177;SDS011;3122;48.208;11.174;2024-02-21T18:23:30;4.90;;;3.50;;
6177;SDS011;3122;48.208;11.174;2024-02-21T18:28:31;5.83;;;4.30;;
6177;SDS011;3122;48.208;11.174;2024-02-21T18:33:31;7.10;;;5.90;;
6177;SDS011;3122;48.208;11.174;2024-02-21T18:38:33;6.23;;;4.37;;
6177;SDS011;3122;48.208;11.174;2024-02-21T18:43:34;5.90;;;4.23;;
6177;SDS011;3122;48.208;11.174;2024-02-21T18:48:35;12.27;;;8.50;;
6177;SDS011;3122;48.208;11.174;2024-02-21T18:53:35;16.70;;;11.00;;
6177;SDS011;3122;48.208;11.174;2024-02-21T18:58:36;17.40;;;10.87;;
6177;SDS011;3122;48.208;11.174;2024-02-21T19:03:36;9.90;;;6.43;;
6177;SDS011;3122;48.208;11.174;2024-02-21T19:08:37;7.57;;;5.53;;
6177;SDS011;3122;48.208;11.174;2024-02-21T19:13:37;6.33;;;4.40;;
6177;SDS011;3122;48.208;11.174;2024-02-21T19:18:38;5.13;;;4.23;;
6177;SDS011;3122;48.208;11.174;2024-02-21T19:23:39;16.30;;;8.97;;
6177;SDS011;3122;48.208;11.174;2024-02-21T19:28:39;9.47;;;6.50;;
6177;SDS011;3122;48.208;11.174;2024-02-21T19:33:40;15.50;;;10.10;;
6177;SDS011;3122;48.208;11.174;2024-02-21T19:38:41;14.10;;;8.10;;
6177;SDS011;3122;48.208;11.174;2024-02-21T19:43:41;7.73;;;5.10;;
6177;SDS011;3122;48.208;11.174;2024-02-21T19:48:42;7.87;;;5.23;;
6177;SDS011;3122;48.208;11.174;2024-02-21T19:53:42;4.63;;;3.60;;
6177;SDS011;3122;48.208;11.174;2024-02-21T19:58:43;4.23;;;3.83;;
6177;SDS011;3122;48.208;11.174;2024-02-21T20:03:44;7.07;;;5.67;;
6177;SDS011;3122;48.208;11.174;2024-02-21T20:08:45;8.93;;;6.17;;
6177;SDS011;3122;48.208;11.174;2024-02-21T20:13:45;4.63;;;4.13;;
6177;SDS011;3122;48.208;11.174;2024-02-21T20:18:46;5.80;;;4.70;;
6177;SDS011;3122;48.208;11.174;2024-02-21T20:23:46;6.03;;;3.70;;
6177;SDS011;3122;48.208;11.174;2024-02-21T20:28:47;4.00;;;3.67;;
6177;SDS011;3122;48.208;11.174;2024-02-21T20:33:47;5.60;;;4.87;;
6177;SDS011;3122;48.208;11.174;2024-02-21T20:38:48;16.43;;;10.03;;
6177;SDS011;3122;48.208;11.174;2024-02-21T20:43:49;12.03;;;7.90;;
6177;SDS011;3122;48.208;11.174;2024-02-21T20:48:50;9.20;;;6.37;;
6177;SDS011;3122;48.208;11.174;2024-02-21T20:53:50;8.47;;;5.50;;
6177;SDS011;3122;48.208;11.174;2024-02-21T20:58:51;6.83;;;4.90;;
6177;SDS011;3122;48.208;11.174;2024-02-21T21:03:51;9.13;;;6.13;;
6177;SDS011;3122;48.208;11.174;2024-02-21T21:08:52;9.67;;;6.50;;
6177;SDS011;3122;48.208;11.174;2024-02-21T21:13:52;7.33;;;5.80;;
6177;SDS011;3122;48.208;11.174;2024-02-21T21:18:53;10.20;;;7.40;;
6177;SDS011;3122;48.208;11.174;2024-02-21T21:23:53;10.17;;;6.50;;
6177;SDS011;3122;48.208;11.174;2024-02-21T21:28:55;7.87;;;6.00;;
6177;SDS011;3122;48.208;11.174;2024-02-21T21:33:57;10.30;;;5.80;;
6177;SDS011;3122;48.208;11.174;2024-02-21T21:38:57;7.83;;;6.17;;
6177;SDS011;3122;48.208;11.174;2024-02-21T21:43:58;7.90;;;6.13;;
6177;SDS011;3122;48.208;11.174;2024-02-21T21:48:59;10.00;;;6.53;;
6177;SDS011;3122;48.208;11.174;2024-02-21T21:53:59;6.03;;;4.87;;
6177;SDS011;3122;48.208;11.174;2024-02-21T21:59:00;6.60;;;4.57;;
6177;SDS011;3122;48.208;11.174;2024-02-21T22:04:03;5.37;;;4.07;;
6177;SDS011;3122;48.208;11.174;2024-02-21T22:09:04;5.50;;;3.70;;
6177;SDS011;3122;48.208;11.174;2024-02-21T22:14:05;5.33;;;3.87;;
6177;SDS011;3122;48.208;11.174;2024-02-21T22:19:08;5.57;;;4.03;;
6177;SDS011;3122;48.208;11.174;2024-02-21T22:24:08;5.07;;;3.60;;
6177;SDS011;3122;48.208;11.174;2024-02-21T22:29:10;3.50;;;3.20;;
6177;SDS011;3122;48.208;11.174;2024-02-21T22:34:11;3.63;;;3.33;;
6177;SDS011;3122;48.208;11.174;2024-02-21T22:39:12;3.63;;;3.17;;
6177;SDS011;3122;48.208;11.174;2024-02-21T22:44:13;4.10;;;3.70;;
6177;SDS011;3122;48.208;11.174;2024-02-21T22:49:14;4.73;;;3.60;;
6177;SDS011;3122;48.208;11.174;2024-02-21T22:54:14;4.47;;;3.77;;
6177;SDS011;3122;48.208;11.174;2024-02-21T22:59:15;4.33;;;3.70;;
6177;SDS011;3122;48.208;11.174;2024-02-21T23:04:16;3.83;;;3.50;;
6177;SDS011;3122;48.208;11.174;2024-02-21T23:09:16;3.00;;;2.70;;
6177;SDS011;3122;48.208;11.174;2024-02-21T23:14:17;4.80;;;2.47;;
6177;SDS011;3122;48.208;11.174;2024-02-21T23:19:18;2.47;;;2.27;;
6177;SDS011;3122;48.208;11.174;2024-02-21T23:24:19;1.80;;;1.70;;
6177;SDS011;3122;48.208;11.174;2024-02-21T23:29:19;1.83;;;1.73;;
6177;SDS011;3122;48.208;11.174;2024-02-21T23:34:20;2.83;;;1.73;;
6177;SDS011;3122;48.208;11.174;2024-02-21T23:39:20;2.03;;;1.87;;
6177;SDS011;3122;48.208;11.174;2024-02-21T23:44:21;1.90;;;1.80;;
6177;SDS011;3122;48.208;11.174;2024-02-21T23:49:21;3.60;;;2.00;;
6177;SDS011;3122;48.208;11.174;2024-02-21T23:54:26;1.93;;;1.73;;
6177;SDS011;3122;48.208;11.174;2024-02-21T23:59:26;1.50;;;1.40;;
